METAR Data
IDs: Format: Raw Decoded Include TAF

Data at: 0116 UTC 06 Dec 2019

KMNI 060115Z AUTO 00000KT 10SM CLR 04/01 A3019 RMK AO2
KMNI 060055Z AUTO 00000KT 10SM CLR 04/01 A3019 RMK AO2
KMNI 060035Z AUTO 00000KT 10SM CLR 05/01 A3018 RMK AO2
KMNI 060015Z AUTO 00000KT 10SM CLR 05/01 A3018 RMK AO2
KMNI 052355Z AUTO 00000KT 10SM CLR 06/01 A3017 RMK AO2
KMNI 052335Z AUTO 00000KT 10SM CLR 07/01 A3016 RMK AO2
KMNI 052315Z AUTO 00000KT 10SM CLR 08/01 A3015 RMK AO2
KMNI 052255Z AUTO 00000KT 10SM CLR 08/01 A3014 RMK AO2
KMNI 052235Z AUTO 00000KT 10SM CLR 10/01 A3013 RMK AO2
KMNI 052215Z AUTO 00000KT 10SM CLR 11/02 A3013 RMK AO2
KMNI 052155Z AUTO 00000KT 10SM CLR 13/01 A3012 RMK AO2
KMNI 052135Z AUTO 00000KT 10SM CLR 15/00 A3011 RMK AO2
KMNI 052115Z AUTO 00000KT 10SM CLR 17/M04 A3010 RMK AO2
KMNI 052055Z AUTO 00000KT 10SM CLR 17/M05 A3010 RMK AO2
KMNI 052035Z AUTO 00000KT 10SM CLR 17/M05 A3009 RMK AO2
KMNI 052015Z AUTO 33006KT 10SM CLR 17/M04 A3009 RMK AO2
KMNI 051955Z AUTO 34003KT 10SM CLR 17/M04 A3009 RMK AO2
KMNI 051935Z AUTO 00000KT 10SM CLR 17/M04 A3008 RMK AO2
KMNI 051915Z AUTO 29003KT 10SM CLR 17/M04 A3008 RMK AO2
KMNI 051855Z AUTO 00000KT 10SM CLR 16/M04 A3009 RMK AO2
KMNI 051835Z AUTO 32003KT 10SM CLR 16/M03 A3009 RMK AO2
KMNI 051815Z AUTO 01005KT 10SM CLR 16/M03 A3009 RMK AO2
KMNI 051755Z AUTO 01008KT 10SM CLR 16/M04 A3010 RMK AO2
KMNI 051735Z AUTO 34004KT 10SM CLR 15/M03 A3010 RMK AO2
KMNI 051715Z AUTO 04005KT 10SM CLR 15/M03 A3010 RMK AO2
KMNI 051655Z AUTO 01005KT 10SM CLR 15/M02 A3011 RMK AO2
KMNI 051635Z AUTO 05005KT 10SM CLR 15/M03 A3012 RMK AO2
KMNI 051615Z AUTO 35008KT 10SM CLR 15/M02 A3012 RMK AO2
KMNI 051555Z AUTO 36006KT 10SM CLR 13/M01 A3012 RMK AO2
KMNI 051535Z AUTO 36004KT 10SM CLR 13/M01 A3011 RMK AO2
KMNI 051515Z AUTO 35006KT 10SM CLR 12/00 A3011 RMK AO2
KMNI 051455Z AUTO 36005KT 10SM CLR 12/00 A3010 RMK AO2
KMNI 051435Z AUTO 33003KT 10SM CLR 10/01 A3010 RMK AO2
KMNI 051415Z AUTO 00000KT 10SM CLR 07/02 A3008 RMK AO2
KMNI 051355Z AUTO 00000KT 10SM CLR 06/02 A3007 RMK AO2
KMNI 051335Z AUTO 00000KT 10SM CLR 04/02 A3006 RMK AO2
KMNI 051315Z AUTO 00000KT 10SM CLR 03/01 A3005 RMK AO2
KMNI 051255Z AUTO 00000KT 10SM CLR 03/01 A3004 RMK AO2
KMNI 051235Z AUTO 00000KT 10SM CLR 02/00 A3003 RMK AO2
KMNI 051215Z AUTO 00000KT 10SM CLR 02/00 A3002 RMK AO2
KMNI 051155Z AUTO 00000KT 10SM CLR 03/00 A3001 RMK AO2
KMNI 051135Z AUTO 00000KT 10SM CLR 04/00 A3000 RMK AO2
KMNI 051115Z AUTO 00000KT 10SM CLR 05/00 A2999 RMK AO2
KMNI 051055Z AUTO 00000KT 10SM CLR 06/00 A2998 RMK AO2
KMNI 051035Z AUTO 00000KT 10SM CLR 06/00 A2997 RMK AO2
KMNI 051015Z AUTO 00000KT 10SM CLR 06/00 A2996 RMK AO2
KMNI 050955Z AUTO 32003KT 10SM CLR 07/00 A2995 RMK AO2
KMNI 050935Z AUTO 31003KT 10SM CLR 07/00 A2994 RMK AO2
KMNI 050915Z AUTO 32003KT 10SM CLR 07/00 A2993 RMK AO2
KMNI 050855Z AUTO 00000KT 10SM CLR 07/00 A2992 RMK AO2
KMNI 050835Z AUTO 00000KT 10SM CLR 07/00 A2991 RMK AO2
KMNI 050815Z AUTO 27003KT 10SM CLR 08/00 A2991 RMK AO2
KMNI 050755Z AUTO 00000KT 10SM CLR 08/00 A2991 RMK AO2
KMNI 050735Z AUTO 26004KT 10SM CLR 08/00 A2990 RMK AO2
KMNI 050715Z AUTO 26003KT 10SM CLR 08/00 A2989 RMK AO2
KMNI 050635Z AUTO 00000KT 10SM CLR 08/00 A2989 RMK AO2
KMNI 050615Z AUTO 00000KT 10SM CLR 08/00 A2989 RMK AO2
KMNI 050555Z AUTO 28003KT 10SM CLR 09/00 A2989 RMK AO2
KMNI 050535Z AUTO 00000KT 10SM CLR 09/00 A2988 RMK AO2
KMNI 050515Z AUTO 27003KT 10SM CLR 09/00 A2988 RMK AO2
KMNI 050455Z AUTO 00000KT 10SM CLR 10/00 A2988 RMK AO2
KMNI 050435Z AUTO 26004KT 10SM CLR 10/00 A2988 RMK AO2
KMNI 050415Z AUTO 27003KT 10SM CLR 10/00 A2988 RMK AO2
KMNI 050355Z AUTO 26003KT 10SM CLR 10/00 A2987 RMK AO2
KMNI 050335Z AUTO 27003KT 10SM CLR 10/00 A2987 RMK AO2
KMNI 050315Z AUTO 27004KT 10SM CLR 10/00 A2987 RMK AO2
KMNI 050255Z AUTO 28005KT 10SM CLR 10/00 A2987 RMK AO2
KMNI 050235Z AUTO 26004KT 10SM CLR 09/01 A2986 RMK AO2
KMNI 050215Z AUTO 25004KT 10SM CLR 09/01 A2985 RMK AO2
KMNI 050155Z AUTO 24005KT 10SM CLR 08/02 A2984 RMK AO2
KMNI 050135Z AUTO 23003KT 10SM CLR 07/02 A2984 RMK AO2
KMNI 050115Z AUTO 23003KT 10SM CLR 08/02 A2984 RMK AO2
KMNI 050055Z AUTO 25003KT 10SM CLR 07/03 A2984 RMK AO2
KMNI 050035Z AUTO 24004KT 10SM CLR 07/02 A2983 RMK AO2
KMNI 050015Z AUTO 00000KT 10SM CLR 07/03 A2983 RMK AO2
KMNI 042355Z AUTO 00000KT 10SM CLR 07/03 A2983 RMK AO2
KMNI 042335Z AUTO 00000KT 10SM CLR 08/03 A2982 RMK AO2
KMNI 042315Z AUTO 00000KT 10SM CLR 08/02 A2980 RMK AO2
KMNI 042255Z AUTO 25003KT 10SM CLR 08/03 A2980 RMK AO2
KMNI 042235Z AUTO 00000KT 10SM CLR 10/02 A2979 RMK AO2
KMNI 042215Z AUTO 00000KT 10SM CLR 10/03 A2979 RMK AO2
KMNI 042155Z AUTO 26003KT 10SM CLR 13/00 A2978 RMK AO2
KMNI 042135Z AUTO 26004KT 10SM CLR 14/00 A2978 RMK AO2
KMNI 042115Z AUTO 29004KT 10SM CLR 14/00 A2977 RMK AO2
KMNI 042055Z AUTO 28008KT 10SM CLR 14/00 A2977 RMK AO2
KMNI 042035Z AUTO 28004KT 10SM CLR 15/00 A2977 RMK AO2
KMNI 042015Z AUTO 26009KT 220V280 10SM CLR 14/00 A2977 RMK AO2
KMNI 041955Z AUTO 27008G14KT 240V310 10SM CLR 14/M01 A2977 RMK AO2
KMNI 041935Z AUTO 26007KT 10SM CLR 14/M01 A2976 RMK AO2
KMNI 041915Z AUTO 27008G14KT 240V320 10SM CLR 13/M01 A2977 RMK AO2
KMNI 041855Z AUTO 29007KT 250V310 10SM CLR 13/M01 A2977 RMK AO2
KMNI 041835Z AUTO 27008KT 10SM CLR 13/M02 A2977 RMK AO2
KMNI 041815Z AUTO 24006KT 10SM CLR 13/00 A2977 RMK AO2
KMNI 041755Z AUTO 27004KT 10SM CLR 12/M01 A2978 RMK AO2
KMNI 041735Z AUTO 25004KT 10SM CLR 12/M01 A2979 RMK AO2
KMNI 041715Z AUTO 30004KT 10SM CLR 11/M01 A2980 RMK AO2
KMNI 041655Z AUTO 30004KT 10SM CLR 11/M01 A2982 RMK AO2
KMNI 041635Z AUTO 25005KT 10SM CLR 11/00 A2983 RMK AO2
KMNI 041615Z AUTO 30004KT 10SM CLR 10/00 A2984 RMK AO2
KMNI 041555Z AUTO 00000KT 10SM CLR 09/00 A2984 RMK AO2
KMNI 041535Z AUTO 29006KT 10SM CLR 08/00 A2986 RMK AO2
KMNI 041515Z AUTO 00000KT 10SM CLR 08/00 A2987 RMK AO2
KMNI 041455Z AUTO 34004KT 10SM CLR 07/01 A2987 RMK AO2
KMNI 041435Z AUTO 29005KT 10SM CLR 06/00 A2987 RMK AO2
KMNI 041415Z AUTO 28005KT 10SM CLR 05/00 A2985 RMK AO2
KMNI 041355Z AUTO 28003KT 10SM CLR 05/01 A2983 RMK AO2
KMNI 041335Z AUTO 00000KT 10SM CLR 03/01 A2983 RMK AO2